Aviation Digital Data Service (ADDS)

Output produced by METARs form (1524 UTC 06 February 2016)
found at http://aviationweather.gov/adds/metars/
 
KJXN 061223Z 0612/0712 24006KT 5SM BR OVC070 
     FM061600 21008KT P6SM SCT070 BKN250 
     FM062200 23010KT P6SM OVC035 
     FM071000 20010KT P6SM OVC100